sensor_id;sensor_type;location;lat;lon;timestamp;P1;durP1;ratioP1;P2;durP2;ratioP2
16391;SDS011;8305;-33.882;151.134;2023-06-10T00:01:46;8.35;;;3.10;;
16391;SDS011;8305;-33.882;151.134;2023-06-10T00:04:17;6.97;;;2.90;;
16391;SDS011;8305;-33.882;151.134;2023-06-10T00:06:50;7.35;;;2.75;;
16391;SDS011;8305;-33.882;151.134;2023-06-10T00:09:21;7.28;;;3.08;;
16391;SDS011;8305;-33.882;151.134;2023-06-10T00:11:53;6.35;;;2.90;;
16391;SDS011;8305;-33.882;151.134;2023-06-10T00:14:26;5.88;;;3.00;;
16391;SDS011;8305;-33.882;151.134;2023-06-10T00:16:57;4.85;;;2.95;;
16391;SDS011;8305;-33.882;151.134;2023-06-10T00:19:28;7.70;;;2.30;;
16391;SDS011;8305;-33.882;151.134;2023-06-10T00:22:01;6.65;;;2.42;;
16391;SDS011;8305;-33.882;151.134;2023-06-10T00:24:33;7.60;;;2.33;;
16391;SDS011;8305;-33.882;151.134;2023-06-10T00:27:04;4.85;;;1.80;;
16391;SDS011;8305;-33.882;151.134;2023-06-10T00:29:36;8.15;;;3.88;;
16391;SDS011;8305;-33.882;151.134;2023-06-10T00:32:07;7.32;;;2.42;;
16391;SDS011;8305;-33.882;151.134;2023-06-10T00:34:38;3.55;;;1.95;;
16391;SDS011;8305;-33.882;151.134;2023-06-10T00:37:11;5.43;;;1.90;;
16391;SDS011;8305;-33.882;151.134;2023-06-10T00:39:43;5.55;;;2.35;;
16391;SDS011;8305;-33.882;151.134;2023-06-10T00:42:14;5.07;;;2.08;;
16391;SDS011;8305;-33.882;151.134;2023-06-10T00:44:45;5.63;;;1.95;;
16391;SDS011;8305;-33.882;151.134;2023-06-10T00:47:16;5.68;;;2.15;;
16391;SDS011;8305;-33.882;151.134;2023-06-10T00:49:48;5.43;;;2.25;;
16391;SDS011;8305;-33.882;151.134;2023-06-10T00:52:22;6.88;;;1.73;;
16391;SDS011;8305;-33.882;151.134;2023-06-10T00:54:56;7.05;;;2.00;;
16391;SDS011;8305;-33.882;151.134;2023-06-10T00:57:28;6.20;;;1.90;;
16391;SDS011;8305;-33.882;151.134;2023-06-10T01:00:00;4.40;;;1.95;;
16391;SDS011;8305;-33.882;151.134;2023-06-10T01:02:34;3.13;;;1.33;;
16391;SDS011;8305;-33.882;151.134;2023-06-10T01:05:05;3.17;;;1.30;;
16391;SDS011;8305;-33.882;151.134;2023-06-10T01:07:42;3.70;;;1.17;;
16391;SDS011;8305;-33.882;151.134;2023-06-10T01:10:20;3.33;;;0.90;;
16391;SDS011;8305;-33.882;151.134;2023-06-10T01:12:55;3.42;;;1.00;;
16391;SDS011;8305;-33.882;151.134;2023-06-10T01:15:30;4.72;;;1.17;;
16391;SDS011;8305;-33.882;151.134;2023-06-10T01:18:02;3.55;;;1.20;;
16391;SDS011;8305;-33.882;151.134;2023-06-10T01:20:36;6.50;;;1.30;;
16391;SDS011;8305;-33.882;151.134;2023-06-10T01:23:09;4.97;;;1.10;;
16391;SDS011;8305;-33.882;151.134;2023-06-10T01:25:41;3.40;;;1.00;;
16391;SDS011;8305;-33.882;151.134;2023-06-10T01:28:16;4.05;;;1.00;;
16391;SDS011;8305;-33.882;151.134;2023-06-10T01:30:52;2.55;;;1.00;;
16391;SDS011;8305;-33.882;151.134;2023-06-10T01:33:31;3.78;;;0.90;;
16391;SDS011;8305;-33.882;151.134;2023-06-10T01:36:05;5.70;;;1.15;;
16391;SDS011;8305;-33.882;151.134;2023-06-10T01:38:39;3.30;;;0.90;;
16391;SDS011;8305;-33.882;151.134;2023-06-10T01:41:12;3.20;;;1.00;;
16391;SDS011;8305;-33.882;151.134;2023-06-10T01:43:45;4.47;;;1.15;;
16391;SDS011;8305;-33.882;151.134;2023-06-10T01:46:17;6.18;;;1.33;;
16391;SDS011;8305;-33.882;151.134;2023-06-10T01:48:48;4.18;;;0.90;;
16391;SDS011;8305;-33.882;151.134;2023-06-10T01:51:19;2.75;;;1.00;;
16391;SDS011;8305;-33.882;151.134;2023-06-10T01:53:52;2.42;;;0.80;;
16391;SDS011;8305;-33.882;151.134;2023-06-10T01:56:23;3.53;;;0.90;;
16391;SDS011;8305;-33.882;151.134;2023-06-10T01:58:54;3.05;;;0.70;;
16391;SDS011;8305;-33.882;151.134;2023-06-10T02:01:26;2.88;;;0.90;;
16391;SDS011;8305;-33.882;151.134;2023-06-10T02:03:57;4.75;;;0.90;;
16391;SDS011;8305;-33.882;151.134;2023-06-10T02:06:28;3.80;;;0.80;;
16391;SDS011;8305;-33.882;151.134;2023-06-10T02:09:02;4.45;;;0.93;;
16391;SDS011;8305;-33.882;151.134;2023-06-10T02:11:34;3.25;;;0.60;;
16391;SDS011;8305;-33.882;151.134;2023-06-10T02:14:05;3.20;;;0.90;;
16391;SDS011;8305;-33.882;151.134;2023-06-10T02:16:36;3.78;;;0.90;;
16391;SDS011;8305;-33.882;151.134;2023-06-10T02:19:07;2.25;;;0.70;;
16391;SDS011;8305;-33.882;151.134;2023-06-10T02:21:38;2.40;;;0.77;;
16391;SDS011;8305;-33.882;151.134;2023-06-10T02:24:11;2.75;;;0.50;;
16391;SDS011;8305;-33.882;151.134;2023-06-10T02:26:42;3.10;;;0.70;;
16391;SDS011;8305;-33.882;151.134;2023-06-10T02:29:14;2.63;;;0.70;;
16391;SDS011;8305;-33.882;151.134;2023-06-10T02:31:45;4.85;;;0.70;;
16391;SDS011;8305;-33.882;151.134;2023-06-10T02:34:19;2.63;;;0.68;;
16391;SDS011;8305;-33.882;151.134;2023-06-10T02:36:50;2.75;;;0.60;;
16391;SDS011;8305;-33.882;151.134;2023-06-10T02:39:23;2.67;;;0.75;;
16391;SDS011;8305;-33.882;151.134;2023-06-10T02:41:54;1.45;;;0.60;;
16391;SDS011;8305;-33.882;151.134;2023-06-10T02:44:25;2.33;;;0.77;;
16391;SDS011;8305;-33.882;151.134;2023-06-10T02:46:56;1.75;;;0.70;;
16391;SDS011;8305;-33.882;151.134;2023-06-10T02:49:27;2.10;;;0.70;;
16391;SDS011;8305;-33.882;151.134;2023-06-10T02:51:58;2.92;;;0.70;;
16391;SDS011;8305;-33.882;151.134;2023-06-10T02:54:31;2.15;;;0.80;;
16391;SDS011;8305;-33.882;151.134;2023-06-10T02:57:03;2.10;;;0.52;;
16391;SDS011;8305;-33.882;151.134;2023-06-10T02:59:34;1.63;;;0.63;;
16391;SDS011;8305;-33.882;151.134;2023-06-10T03:02:06;5.82;;;1.00;;
16391;SDS011;8305;-33.882;151.134;2023-06-10T03:04:38;2.75;;;0.60;;
16391;SDS011;8305;-33.882;151.134;2023-06-10T03:07:09;1.98;;;0.70;;
16391;SDS011;8305;-33.882;151.134;2023-06-10T03:09:43;1.83;;;0.60;;
16391;SDS011;8305;-33.882;151.134;2023-06-10T03:12:14;3.17;;;0.70;;
16391;SDS011;8305;-33.882;151.134;2023-06-10T03:14:45;2.25;;;0.52;;
16391;SDS011;8305;-33.882;151.134;2023-06-10T03:17:16;2.63;;;0.80;;
16391;SDS011;8305;-33.882;151.134;2023-06-10T03:19:47;3.25;;;0.63;;
16391;SDS011;8305;-33.882;151.134;2023-06-10T03:22:18;2.30;;;0.75;;
16391;SDS011;8305;-33.882;151.134;2023-06-10T03:24:51;2.15;;;0.70;;
16391;SDS011;8305;-33.882;151.134;2023-06-10T03:27:23;1.55;;;0.70;;
16391;SDS011;8305;-33.882;151.134;2023-06-10T03:29:55;1.10;;;0.50;;
16391;SDS011;8305;-33.882;151.134;2023-06-10T03:32:26;2.28;;;0.75;;
16391;SDS011;8305;-33.882;151.134;2023-06-10T03:34:57;3.67;;;0.70;;
16391;SDS011;8305;-33.882;151.134;2023-06-10T03:37:28;1.63;;;0.75;;
16391;SDS011;8305;-33.882;151.134;2023-06-10T03:40:01;2.05;;;0.70;;
16391;SDS011;8305;-33.882;151.134;2023-06-10T03:42:34;4.07;;;0.80;;
16391;SDS011;8305;-33.882;151.134;2023-06-10T03:45:05;3.10;;;0.90;;
16391;SDS011;8305;-33.882;151.134;2023-06-10T03:47:37;1.17;;;0.70;;
16391;SDS011;8305;-33.882;151.134;2023-06-10T03:50:09;2.17;;;0.80;;
16391;SDS011;8305;-33.882;151.134;2023-06-10T03:52:41;3.10;;;0.80;;
16391;SDS011;8305;-33.882;151.134;2023-06-10T03:55:15;1.65;;;0.50;;
16391;SDS011;8305;-33.882;151.134;2023-06-10T03:57:47;2.17;;;0.75;;
16391;SDS011;8305;-33.882;151.134;2023-06-10T04:00:19;4.43;;;0.80;;
16391;SDS011;8305;-33.882;151.134;2023-06-10T04:02:50;2.67;;;0.95;;
16391;SDS011;8305;-33.882;151.134;2023-06-10T04:05:24;2.60;;;0.80;;
16391;SDS011;8305;-33.882;151.134;2023-06-10T04:07:56;2.45;;;0.65;;
16391;SDS011;8305;-33.882;151.134;2023-06-10T04:10:29;3.00;;;0.95;;
16391;SDS011;8305;-33.882;151.134;2023-06-10T04:13:00;3.70;;;1.00;;
16391;SDS011;8305;-33.882;151.134;2023-06-10T04:15:32;3.40;;;0.68;;
16391;SDS011;8305;-33.882;151.134;2023-06-10T04:18:03;2.17;;;0.80;;
16391;SDS011;8305;-33.882;151.134;2023-06-10T04:20:34;2.88;;;0.57;;
16391;SDS011;8305;-33.882;151.134;2023-06-10T04:23:05;2.67;;;0.73;;
16391;SDS011;8305;-33.882;151.134;2023-06-10T04:25:39;2.28;;;1.00;;
16391;SDS011;8305;-33.882;151.134;2023-06-10T04:28:10;3.50;;;0.90;;
16391;SDS011;8305;-33.882;151.134;2023-06-10T04:30:41;3.50;;;1.00;;
16391;SDS011;8305;-33.882;151.134;2023-06-10T04:33:12;3.45;;;0.88;;
16391;SDS011;8305;-33.882;151.134;2023-06-10T04:35:43;2.83;;;0.90;;
16391;SDS011;8305;-33.882;151.134;2023-06-10T04:38:15;2.63;;;0.90;;
16391;SDS011;8305;-33.882;151.134;2023-06-10T04:40:48;1.38;;;0.85;;
16391;SDS011;8305;-33.882;151.134;2023-06-10T04:43:19;1.38;;;0.70;;
16391;SDS011;8305;-33.882;151.134;2023-06-10T04:45:50;2.75;;;0.85;;
16391;SDS011;8305;-33.882;151.134;2023-06-10T04:48:21;2.13;;;0.80;;
16391;SDS011;8305;-33.882;151.134;2023-06-10T04:50:52;4.32;;;1.05;;
16391;SDS011;8305;-33.882;151.134;2023-06-10T04:53:23;2.47;;;0.98;;
16391;SDS011;8305;-33.882;151.134;2023-06-10T04:55:56;3.38;;;0.90;;
16391;SDS011;8305;-33.882;151.134;2023-06-10T04:58:28;2.28;;;0.90;;
16391;SDS011;8305;-33.882;151.134;2023-06-10T05:00:59;2.58;;;0.85;;
16391;SDS011;8305;-33.882;151.134;2023-06-10T05:03:30;2.17;;;0.80;;
16391;SDS011;8305;-33.882;151.134;2023-06-10T05:06:01;2.30;;;0.50;;
16391;SDS011;8305;-33.882;151.134;2023-06-10T05:08:32;3.55;;;0.82;;
16391;SDS011;8305;-33.882;151.134;2023-06-10T05:11:05;2.05;;;0.77;;
16391;SDS011;8305;-33.882;151.134;2023-06-10T05:13:36;2.25;;;0.70;;
16391;SDS011;8305;-33.882;151.134;2023-06-10T05:16:08;2.53;;;0.80;;
16391;SDS011;8305;-33.882;151.134;2023-06-10T05:18:41;2.15;;;0.70;;
16391;SDS011;8305;-33.882;151.134;2023-06-10T05:21:12;2.97;;;0.70;;
16391;SDS011;8305;-33.882;151.134;2023-06-10T05:23:43;1.45;;;0.65;;
16391;SDS011;8305;-33.882;151.134;2023-06-10T05:26:16;2.00;;;0.68;;
16391;SDS011;8305;-33.882;151.134;2023-06-10T05:28:47;4.35;;;0.90;;
16391;SDS011;8305;-33.882;151.134;2023-06-10T05:31:18;3.15;;;0.80;;
16391;SDS011;8305;-33.882;151.134;2023-06-10T05:33:49;1.05;;;0.52;;
16391;SDS011;8305;-33.882;151.134;2023-06-10T05:36:21;2.05;;;0.73;;
16391;SDS011;8305;-33.882;151.134;2023-06-10T05:38:53;2.83;;;0.82;;
16391;SDS011;8305;-33.882;151.134;2023-06-10T05:41:26;2.15;;;0.75;;
16391;SDS011;8305;-33.882;151.134;2023-06-10T05:43:57;2.00;;;0.60;;
16391;SDS011;8305;-33.882;151.134;2023-06-10T05:46:28;1.70;;;0.60;;
16391;SDS011;8305;-33.882;151.134;2023-06-10T05:48:59;3.30;;;0.70;;
16391;SDS011;8305;-33.882;151.134;2023-06-10T05:51:30;1.42;;;0.70;;
16391;SDS011;8305;-33.882;151.134;2023-06-10T05:54:01;1.42;;;0.52;;
16391;SDS011;8305;-33.882;151.134;2023-06-10T05:56:35;2.78;;;0.90;;
16391;SDS011;8305;-33.882;151.134;2023-06-10T05:59:06;2.30;;;0.63;;
16391;SDS011;8305;-33.882;151.134;2023-06-10T06:01:37;2.60;;;0.60;;
16391;SDS011;8305;-33.882;151.134;2023-06-10T06:04:08;1.20;;;0.68;;
16391;SDS011;8305;-33.882;151.134;2023-06-10T06:06:39;3.97;;;1.05;;
16391;SDS011;8305;-33.882;151.134;2023-06-10T06:09:10;2.60;;;0.90;;
16391;SDS011;8305;-33.882;151.134;2023-06-10T06:11:43;3.58;;;0.70;;
16391;SDS011;8305;-33.882;151.134;2023-06-10T06:14:14;2.05;;;0.80;;
16391;SDS011;8305;-33.882;151.134;2023-06-10T06:16:45;1.80;;;0.98;;
16391;SDS011;8305;-33.882;151.134;2023-06-10T06:19:16;2.28;;;0.80;;
16391;SDS011;8305;-33.882;151.134;2023-06-10T06:21:47;4.13;;;0.82;;
16391;SDS011;8305;-33.882;151.134;2023-06-10T06:24:18;2.22;;;0.73;;
16391;SDS011;8305;-33.882;151.134;2023-06-10T06:26:52;2.72;;;0.90;;
16391;SDS011;8305;-33.882;151.134;2023-06-10T06:29:24;3.25;;;0.88;;
16391;SDS011;8305;-33.882;151.134;2023-06-10T06:31:56;1.90;;;0.90;;
16391;SDS011;8305;-33.882;151.134;2023-06-10T06:34:27;2.03;;;0.95;;
16391;SDS011;8305;-33.882;151.134;2023-06-10T06:36:58;4.70;;;1.00;;
16391;SDS011;8305;-33.882;151.134;2023-06-10T06:39:29;4.63;;;1.20;;
16391;SDS011;8305;-33.882;151.134;2023-06-10T06:42:02;2.08;;;1.02;;
16391;SDS011;8305;-33.882;151.134;2023-06-10T06:44:34;5.28;;;1.00;;
16391;SDS011;8305;-33.882;151.134;2023-06-10T06:47:05;5.97;;;1.42;;
16391;SDS011;8305;-33.882;151.134;2023-06-10T06:49:36;4.97;;;1.90;;
16391;SDS011;8305;-33.882;151.134;2023-06-10T06:52:08;5.30;;;2.70;;
16391;SDS011;8305;-33.882;151.134;2023-06-10T06:54:39;7.85;;;3.50;;
16391;SDS011;8305;-33.882;151.134;2023-06-10T06:57:12;10.13;;;6.20;;
16391;SDS011;8305;-33.882;151.134;2023-06-10T06:59:43;9.25;;;5.82;;
16391;SDS011;8305;-33.882;151.134;2023-06-10T07:02:14;10.55;;;5.55;;
16391;SDS011;8305;-33.882;151.134;2023-06-10T07:04:45;11.40;;;6.00;;
16391;SDS011;8305;-33.882;151.134;2023-06-10T07:07:17;10.05;;;6.95;;
16391;SDS011;8305;-33.882;151.134;2023-06-10T07:09:48;10.65;;;6.63;;
16391;SDS011;8305;-33.882;151.134;2023-06-10T07:12:21;11.63;;;5.38;;
16391;SDS011;8305;-33.882;151.134;2023-06-10T07:14:52;8.75;;;4.90;;
16391;SDS011;8305;-33.882;151.134;2023-06-10T07:17:23;6.85;;;3.97;;
16391;SDS011;8305;-33.882;151.134;2023-06-10T07:19:54;5.90;;;3.70;;
16391;SDS011;8305;-33.882;151.134;2023-06-10T07:22:25;7.35;;;3.58;;
16391;SDS011;8305;-33.882;151.134;2023-06-10T07:24:57;7.20;;;3.90;;
16391;SDS011;8305;-33.882;151.134;2023-06-10T07:27:30;6.93;;;3.50;;
16391;SDS011;8305;-33.882;151.134;2023-06-10T07:30:02;9.10;;;3.65;;
16391;SDS011;8305;-33.882;151.134;2023-06-10T07:32:34;5.93;;;3.50;;
16391;SDS011;8305;-33.882;151.134;2023-06-10T07:35:07;7.22;;;3.45;;
16391;SDS011;8305;-33.882;151.134;2023-06-10T07:37:39;8.52;;;3.17;;
16391;SDS011;8305;-33.882;151.134;2023-06-10T07:40:10;6.57;;;2.95;;
16391;SDS011;8305;-33.882;151.134;2023-06-10T07:42:43;5.82;;;2.88;;
16391;SDS011;8305;-33.882;151.134;2023-06-10T07:45:14;5.80;;;3.00;;
16391;SDS011;8305;-33.882;151.134;2023-06-10T07:47:46;5.00;;;2.70;;
16391;SDS011;8305;-33.882;151.134;2023-06-10T07:50:17;6.45;;;2.80;;
16391;SDS011;8305;-33.882;151.134;2023-06-10T07:52:48;4.35;;;2.28;;
16391;SDS011;8305;-33.882;151.134;2023-06-10T07:55:19;7.10;;;2.67;;
16391;SDS011;8305;-33.882;151.134;2023-06-10T07:57:54;5.03;;;2.38;;
16391;SDS011;8305;-33.882;151.134;2023-06-10T08:00:25;5.32;;;2.20;;
16391;SDS011;8305;-33.882;151.134;2023-06-10T08:02:56;6.10;;;3.20;;
16391;SDS011;8305;-33.882;151.134;2023-06-10T08:05:27;8.27;;;4.25;;
16391;SDS011;8305;-33.882;151.134;2023-06-10T08:07:58;7.10;;;3.92;;
16391;SDS011;8305;-33.882;151.134;2023-06-10T08:10:29;9.65;;;4.50;;
16391;SDS011;8305;-33.882;151.134;2023-06-10T08:13:02;7.25;;;4.10;;
16391;SDS011;8305;-33.882;151.134;2023-06-10T08:15:33;7.13;;;3.90;;
16391;SDS011;8305;-33.882;151.134;2023-06-10T08:18:04;8.27;;;4.18;;
16391;SDS011;8305;-33.882;151.134;2023-06-10T08:20:35;7.35;;;4.20;;
16391;SDS011;8305;-33.882;151.134;2023-06-10T08:23:07;5.80;;;3.42;;
16391;SDS011;8305;-33.882;151.134;2023-06-10T08:25:38;7.78;;;3.33;;
16391;SDS011;8305;-33.882;151.134;2023-06-10T08:28:11;6.78;;;3.40;;
16391;SDS011;8305;-33.882;151.134;2023-06-10T08:30:42;6.93;;;3.50;;
16391;SDS011;8305;-33.882;151.134;2023-06-10T08:33:13;9.00;;;4.05;;
16391;SDS011;8305;-33.882;151.134;2023-06-10T08:35:44;9.50;;;4.28;;
16391;SDS011;8305;-33.882;151.134;2023-06-10T08:38:15;9.77;;;4.68;;
16391;SDS011;8305;-33.882;151.134;2023-06-10T08:40:46;9.30;;;4.30;;
16391;SDS011;8305;-33.882;151.134;2023-06-10T08:43:20;8.68;;;4.63;;
16391;SDS011;8305;-33.882;151.134;2023-06-10T08:45:56;10.55;;;4.55;;
16391;SDS011;8305;-33.882;151.134;2023-06-10T08:48:30;11.10;;;4.25;;
16391;SDS011;8305;-33.882;151.134;2023-06-10T08:51:04;7.88;;;4.20;;
16391;SDS011;8305;-33.882;151.134;2023-06-10T08:53:36;11.30;;;4.70;;
16391;SDS011;8305;-33.882;151.134;2023-06-10T08:56:12;8.27;;;4.63;;
16391;SDS011;8305;-33.882;151.134;2023-06-10T08:58:46;10.45;;;4.88;;
16391;SDS011;8305;-33.882;151.134;2023-06-10T09:01:19;8.25;;;4.55;;
16391;SDS011;8305;-33.882;151.134;2023-06-10T09:03:50;11.23;;;5.13;;
16391;SDS011;8305;-33.882;151.134;2023-06-10T09:06:21;11.93;;;5.72;;
16391;SDS011;8305;-33.882;151.134;2023-06-10T09:08:53;12.20;;;6.10;;
16391;SDS011;8305;-33.882;151.134;2023-06-10T09:11:24;13.73;;;6.18;;
16391;SDS011;8305;-33.882;151.134;2023-06-10T09:13:57;12.95;;;6.32;;
16391;SDS011;8305;-33.882;151.134;2023-06-10T09:16:28;11.57;;;5.88;;
16391;SDS011;8305;-33.882;151.134;2023-06-10T09:18:59;12.70;;;6.10;;
16391;SDS011;8305;-33.882;151.134;2023-06-10T09:21:34;12.77;;;6.43;;
16391;SDS011;8305;-33.882;151.134;2023-06-10T09:24:05;11.63;;;5.80;;
16391;SDS011;8305;-33.882;151.134;2023-06-10T09:26:36;13.25;;;6.00;;
16391;SDS011;8305;-33.882;151.134;2023-06-10T09:29:09;12.70;;;5.80;;
16391;SDS011;8305;-33.882;151.134;2023-06-10T09:31:40;10.35;;;5.97;;
16391;SDS011;8305;-33.882;151.134;2023-06-10T09:34:13;12.45;;;5.88;;
16391;SDS011;8305;-33.882;151.134;2023-06-10T09:36:45;10.85;;;5.80;;
16391;SDS011;8305;-33.882;151.134;2023-06-10T09:39:16;13.30;;;6.68;;
16391;SDS011;8305;-33.882;151.134;2023-06-10T09:41:48;11.50;;;6.05;;
16391;SDS011;8305;-33.882;151.134;2023-06-10T09:44:21;13.43;;;6.50;;
16391;SDS011;8305;-33.882;151.134;2023-06-10T09:46:53;12.18;;;6.28;;
16391;SDS011;8305;-33.882;151.134;2023-06-10T09:49:25;15.68;;;6.43;;
16391;SDS011;8305;-33.882;151.134;2023-06-10T09:51:59;10.50;;;6.07;;
16391;SDS011;8305;-33.882;151.134;2023-06-10T09:54:34;11.85;;;5.90;;
16391;SDS011;8305;-33.882;151.134;2023-06-10T09:57:07;11.80;;;5.90;;
16391;SDS011;8305;-33.882;151.134;2023-06-10T09:59:40;12.00;;;5.75;;
16391;SDS011;8305;-33.882;151.134;2023-06-10T10:02:13;9.98;;;5.18;;
16391;SDS011;8305;-33.882;151.134;2023-06-10T10:04:45;11.05;;;5.10;;
16391;SDS011;8305;-33.882;151.134;2023-06-10T10:07:16;11.00;;;5.38;;
16391;SDS011;8305;-33.882;151.134;2023-06-10T10:09:47;12.48;;;5.38;;
16391;SDS011;8305;-33.882;151.134;2023-06-10T10:12:18;10.35;;;5.40;;
16391;SDS011;8305;-33.882;151.134;2023-06-10T10:14:52;9.90;;;5.20;;
16391;SDS011;8305;-33.882;151.134;2023-06-10T10:17:25;11.80;;;5.32;;
16391;SDS011;8305;-33.882;151.134;2023-06-10T10:19:59;18.05;;;7.60;;
16391;SDS011;8305;-33.882;151.134;2023-06-10T10:22:35;15.57;;;7.28;;
16391;SDS011;8305;-33.882;151.134;2023-06-10T10:25:10;18.00;;;9.07;;
16391;SDS011;8305;-33.882;151.134;2023-06-10T10:27:43;16.30;;;9.32;;
16391;SDS011;8305;-33.882;151.134;2023-06-10T10:30:20;17.13;;;9.40;;
16391;SDS011;8305;-33.882;151.134;2023-06-10T10:32:54;16.60;;;9.10;;
16391;SDS011;8305;-33.882;151.134;2023-06-10T10:35:30;14.70;;;8.95;;
16391;SDS011;8305;-33.882;151.134;2023-06-10T10:38:02;17.63;;;9.25;;
16391;SDS011;8305;-33.882;151.134;2023-06-10T10:40:33;17.80;;;9.68;;
16391;SDS011;8305;-33.882;151.134;2023-06-10T10:43:05;17.67;;;9.38;;
16391;SDS011;8305;-33.882;151.134;2023-06-10T10:45:38;17.58;;;9.63;;
16391;SDS011;8305;-33.882;151.134;2023-06-10T10:48:09;18.83;;;10.40;;
16391;SDS011;8305;-33.882;151.134;2023-06-10T10:50:41;17.98;;;10.70;;
16391;SDS011;8305;-33.882;151.134;2023-06-10T10:53:12;17.58;;;10.02;;
16391;SDS011;8305;-33.882;151.134;2023-06-10T10:55:58;18.48;;;10.57;;
16391;SDS011;8305;-33.882;151.134;2023-06-10T10:58:33;18.23;;;11.02;;
16391;SDS011;8305;-33.882;151.134;2023-06-10T11:01:16;22.10;;;10.50;;
16391;SDS011;8305;-33.882;151.134;2023-06-10T11:03:47;18.65;;;11.18;;
16391;SDS011;8305;-33.882;151.134;2023-06-10T11:06:18;20.17;;;10.70;;
16391;SDS011;8305;-33.882;151.134;2023-06-10T11:08:49;19.23;;;10.02;;
16391;SDS011;8305;-33.882;151.134;2023-06-10T11:11:21;19.83;;;9.35;;
16391;SDS011;8305;-33.882;151.134;2023-06-10T11:14:06;17.90;;;9.00;;
16391;SDS011;8305;-33.882;151.134;2023-06-10T11:16:43;15.90;;;8.57;;
16391;SDS011;8305;-33.882;151.134;2023-06-10T11:22:02;13.95;;;8.10;;
16391;SDS011;8305;-33.882;151.134;2023-06-10T11:24:34;15.75;;;8.40;;
16391;SDS011;8305;-33.882;151.134;2023-06-10T11:27:15;12.98;;;7.10;;
16391;SDS011;8305;-33.882;151.134;2023-06-10T11:29:58;12.45;;;6.43;;
16391;SDS011;8305;-33.882;151.134;2023-06-10T11:32:52;12.05;;;6.22;;
16391;SDS011;8305;-33.882;151.134;2023-06-10T11:35:25;10.45;;;5.93;;
16391;SDS011;8305;-33.882;151.134;2023-06-10T11:37:56;9.50;;;5.40;;
16391;SDS011;8305;-33.882;151.134;2023-06-10T11:40:28;9.85;;;5.60;;
16391;SDS011;8305;-33.882;151.134;2023-06-10T11:43:00;8.70;;;4.78;;
16391;SDS011;8305;-33.882;151.134;2023-06-10T11:45:33;11.27;;;4.90;;
16391;SDS011;8305;-33.882;151.134;2023-06-10T11:48:06;10.32;;;5.18;;
16391;SDS011;8305;-33.882;151.134;2023-06-10T11:50:38;7.70;;;4.28;;
16391;SDS011;8305;-33.882;151.134;2023-06-10T11:53:10;9.57;;;4.00;;
16391;SDS011;8305;-33.882;151.134;2023-06-10T11:55:41;9.02;;;4.00;;
16391;SDS011;8305;-33.882;151.134;2023-06-10T11:58:14;8.55;;;3.88;;
16391;SDS011;8305;-33.882;151.134;2023-06-10T12:00:46;9.05;;;4.80;;
16391;SDS011;8305;-33.882;151.134;2023-06-10T12:03:21;8.35;;;4.97;;
16391;SDS011;8305;-33.882;151.134;2023-06-10T12:05:56;11.05;;;5.13;;
16391;SDS011;8305;-33.882;151.134;2023-06-10T12:08:28;9.82;;;5.72;;
16391;SDS011;8305;-33.882;151.134;2023-06-10T12:11:00;10.90;;;5.82;;
16391;SDS011;8305;-33.882;151.134;2023-06-10T12:13:31;7.45;;;4.35;;
16391;SDS011;8305;-33.882;151.134;2023-06-10T12:16:08;7.40;;;4.65;;
16391;SDS011;8305;-33.882;151.134;2023-06-10T12:18:42;7.70;;;4.43;;
16391;SDS011;8305;-33.882;151.134;2023-06-10T12:21:24;7.70;;;4.07;;
16391;SDS011;8305;-33.882;151.134;2023-06-10T12:24:05;8.05;;;3.92;;
16391;SDS011;8305;-33.882;151.134;2023-06-10T12:26:37;6.65;;;3.50;;
16391;SDS011;8305;-33.882;151.134;2023-06-10T12:29:16;7.75;;;4.10;;
16391;SDS011;8305;-33.882;151.134;2023-06-10T12:31:59;13.85;;;7.97;;
16391;SDS011;8305;-33.882;151.134;2023-06-10T12:34:37;17.20;;;9.80;;
16391;SDS011;8305;-33.882;151.134;2023-06-10T12:37:10;19.08;;;10.80;;
16391;SDS011;8305;-33.882;151.134;2023-06-10T12:39:42;18.63;;;10.32;;
16391;SDS011;8305;-33.882;151.134;2023-06-10T12:42:22;19.20;;;10.95;;
16391;SDS011;8305;-33.882;151.134;2023-06-10T12:44:54;18.33;;;10.80;;
16391;SDS011;8305;-33.882;151.134;2023-06-10T12:47:30;20.90;;;10.93;;
16391;SDS011;8305;-33.882;151.134;2023-06-10T12:50:04;19.63;;;10.57;;
16391;SDS011;8305;-33.882;151.134;2023-06-10T12:52:36;15.57;;;9.63;;
16391;SDS011;8305;-33.882;151.134;2023-06-10T12:55:07;17.17;;;9.18;;
16391;SDS011;8305;-33.882;151.134;2023-06-10T12:57:47;17.80;;;9.95;;
16391;SDS011;8305;-33.882;151.134;2023-06-10T13:00:19;17.52;;;9.00;;
16391;SDS011;8305;-33.882;151.134;2023-06-10T13:02:52;11.98;;;7.68;;
16391;SDS011;8305;-33.882;151.134;2023-06-10T13:05:25;13.40;;;7.30;;
16391;SDS011;8305;-33.882;151.134;2023-06-10T13:07:56;14.18;;;7.65;;
16391;SDS011;8305;-33.882;151.134;2023-06-10T13:10:27;13.55;;;7.53;;
16391;SDS011;8305;-33.882;151.134;2023-06-10T13:12:59;15.23;;;8.20;;
16391;SDS011;8305;-33.882;151.134;2023-06-10T13:15:31;16.88;;;9.43;;
16391;SDS011;8305;-33.882;151.134;2023-06-10T13:18:04;18.50;;;10.10;;
16391;SDS011;8305;-33.882;151.134;2023-06-10T13:20:37;18.95;;;9.45;;
16391;SDS011;8305;-33.882;151.134;2023-06-10T13:23:08;19.45;;;9.70;;
16391;SDS011;8305;-33.882;151.134;2023-06-10T13:25:39;18.75;;;9.95;;
16391;SDS011;8305;-33.882;151.134;2023-06-10T13:28:10;21.27;;;10.13;;
16391;SDS011;8305;-33.882;151.134;2023-06-10T13:30:42;19.02;;;10.43;;
16391;SDS011;8305;-33.882;151.134;2023-06-10T13:33:13;20.25;;;10.50;;
16391;SDS011;8305;-33.882;151.134;2023-06-10T13:35:46;14.98;;;9.52;;
16391;SDS011;8305;-33.882;151.134;2023-06-10T13:38:17;16.45;;;9.75;;
16391;SDS011;8305;-33.882;151.134;2023-06-10T13:40:48;15.30;;;9.40;;
16391;SDS011;8305;-33.882;151.134;2023-06-10T13:43:19;17.35;;;9.80;;
16391;SDS011;8305;-33.882;151.134;2023-06-10T13:45:50;14.00;;;9.05;;
16391;SDS011;8305;-33.882;151.134;2023-06-10T13:48:21;16.63;;;9.65;;
16391;SDS011;8305;-33.882;151.134;2023-06-10T13:50:54;14.32;;;8.00;;
16391;SDS011;8305;-33.882;151.134;2023-06-10T13:53:25;11.52;;;7.18;;
16391;SDS011;8305;-33.882;151.134;2023-06-10T13:55:57;14.50;;;7.75;;
16391;SDS011;8305;-33.882;151.134;2023-06-10T13:58:28;16.60;;;8.82;;
16391;SDS011;8305;-33.882;151.134;2023-06-10T14:01:05;15.20;;;7.97;;
16391;SDS011;8305;-33.882;151.134;2023-06-10T14:03:36;14.77;;;8.50;;
16391;SDS011;8305;-33.882;151.134;2023-06-10T14:06:09;13.27;;;8.77;;
16391;SDS011;8305;-33.882;151.134;2023-06-10T14:08:44;13.40;;;7.97;;
16391;SDS011;8305;-33.882;151.134;2023-06-10T14:11:15;14.10;;;7.85;;
16391;SDS011;8305;-33.882;151.134;2023-06-10T14:13:47;12.27;;;7.60;;
16391;SDS011;8305;-33.882;151.134;2023-06-10T14:16:22;11.85;;;6.75;;
16391;SDS011;8305;-33.882;151.134;2023-06-10T14:18:53;11.07;;;6.32;;
16391;SDS011;8305;-33.882;151.134;2023-06-10T14:21:26;10.73;;;5.97;;
16391;SDS011;8305;-33.882;151.134;2023-06-10T14:23:58;9.90;;;5.20;;
16391;SDS011;8305;-33.882;151.134;2023-06-10T14:26:29;8.70;;;4.88;;
16391;SDS011;8305;-33.882;151.134;2023-06-10T14:29:00;10.35;;;4.82;;
16391;SDS011;8305;-33.882;151.134;2023-06-10T14:31:31;7.22;;;4.18;;
16391;SDS011;8305;-33.882;151.134;2023-06-10T14:34:02;7.38;;;4.45;;
16391;SDS011;8305;-33.882;151.134;2023-06-10T14:36:36;9.93;;;4.97;;
16391;SDS011;8305;-33.882;151.134;2023-06-10T14:39:07;6.85;;;4.40;;
16391;SDS011;8305;-33.882;151.134;2023-06-10T14:41:38;9.65;;;4.88;;
16391;SDS011;8305;-33.882;151.134;2023-06-10T14:44:09;8.73;;;5.20;;
16391;SDS011;8305;-33.882;151.134;2023-06-10T14:46:40;9.27;;;5.10;;
16391;SDS011;8305;-33.882;151.134;2023-06-10T14:49:11;9.48;;;5.28;;